createdAt,value
2022-11-14T00:04:47.966Z,52.45
2022-11-14T00:09:49.417Z,51.30
2022-11-14T00:14:51.779Z,50.65
2022-11-14T00:19:53.199Z,49.60
2022-11-14T00:24:54.605Z,53.58
2022-11-14T00:29:56.083Z,49.97
2022-11-14T00:34:57.539Z,43.10
2022-11-14T00:39:58.997Z,43.50
2022-11-14T00:45:00.405Z,43.72
2022-11-14T00:50:01.914Z,41.55
2022-11-14T00:55:03.847Z,42.97
2022-11-14T01:00:06.840Z,42.38
2022-11-14T01:05:08.409Z,46.20
2022-11-14T01:10:10.083Z,42.47
2022-11-14T01:15:11.560Z,42.55
2022-11-14T01:20:12.958Z,43.38
2022-11-14T01:25:14.464Z,40.08
2022-11-14T01:30:15.946Z,39.78
2022-11-14T01:35:17.489Z,41.15
2022-11-14T01:40:19.240Z,46.28
2022-11-14T01:45:45.857Z,46.85
2022-11-14T01:50:53.761Z,47.95
2022-11-14T01:55:59.309Z,51.13
2022-11-14T02:01:01.011Z,58.47
2022-11-14T02:06:03.302Z,58.55
2022-11-14T02:11:04.884Z,63.55
2022-11-14T02:16:06.837Z,65.03
2022-11-14T02:21:08.327Z,62.97
2022-11-14T02:26:09.784Z,65.70
2022-11-14T02:31:11.468Z,60.78
2022-11-14T02:36:12.898Z,68.93
2022-11-14T02:41:14.365Z,64.90
2022-11-14T02:46:15.789Z,66.97
2022-11-14T02:51:18.635Z,69.32
2022-11-14T02:56:20.359Z,76.32
2022-11-14T03:01:22.031Z,72.65
2022-11-14T03:06:23.553Z,72.93
2022-11-14T03:11:24.970Z,69.57
2022-11-14T03:16:26.425Z,72.32
2022-11-14T03:21:27.970Z,68.22
2022-11-14T03:26:29.399Z,62.20
2022-11-14T03:31:31.281Z,71.55
2022-11-14T03:36:34.197Z,69.90
2022-11-14T03:41:35.632Z,66.95
2022-11-14T03:46:37.136Z,68.28
2022-11-14T03:51:38.656Z,69.80
2022-11-14T03:56:40.093Z,68.45
2022-11-14T04:01:41.553Z,69.82
2022-11-14T04:06:43.040Z,69.05
2022-11-14T04:11:44.521Z,70.22
2022-11-14T04:16:45.935Z,55.03
2022-11-14T04:21:47.440Z,55.75
2022-11-14T04:26:48.862Z,51.80
2022-11-14T04:31:50.403Z,53.67
2022-11-14T04:36:58.940Z,58.45
2022-11-14T04:42:00.415Z,53.35
2022-11-14T04:47:02.007Z,54.42
2022-11-14T04:52:03.908Z,56.05
2022-11-14T04:57:05.351Z,59.30
2022-11-14T05:02:06.803Z,61.47
2022-11-14T05:07:08.231Z,69.32
2022-11-14T05:12:09.631Z,69.72
2022-11-14T05:17:11.098Z,69.05
2022-11-14T05:22:12.552Z,71.28
2022-11-14T05:27:14.100Z,76.18
2022-11-14T05:32:16.671Z,75.05
2022-11-14T05:37:18.119Z,70.20
2022-11-14T05:42:19.536Z,78.63
2022-11-14T05:47:20.963Z,70.68
2022-11-14T05:52:22.386Z,65.07
2022-11-14T05:57:23.824Z,71.30
2022-11-14T06:02:25.309Z,70.28
2022-11-14T06:07:26.868Z,69.75
2022-11-14T06:12:28.350Z,72.20
2022-11-14T06:17:29.753Z,58.35
2022-11-14T06:22:31.392Z,62.58
2022-11-14T06:27:32.792Z,56.40
2022-11-14T06:32:34.291Z,58.47
2022-11-14T06:37:37.343Z,58.78
2022-11-14T06:42:38.760Z,59.17
2022-11-14T06:47:40.153Z,54.40
2022-11-14T06:52:41.658Z,53.78
2022-11-14T06:57:43.477Z,54.35
2022-11-14T07:02:49.164Z,60.08
2022-11-14T07:07:50.599Z,59.30
2022-11-14T07:12:52.030Z,57.60
2022-11-14T07:17:53.459Z,59.85
2022-11-14T07:22:54.901Z,56.03
2022-11-14T07:27:57.609Z,57.03
2022-11-14T07:32:59.379Z,53.83
2022-11-14T07:38:02.433Z,52.88
2022-11-14T07:43:04.277Z,51.67
2022-11-14T07:48:05.962Z,54.67
2022-11-14T07:53:07.657Z,57.08
2022-11-14T07:58:09.298Z,62.28
2022-11-14T08:03:11.003Z,53.90
2022-11-14T08:08:12.445Z,54.00
2022-11-14T08:18:35.340Z,60.63
2022-11-14T08:23:36.815Z,61.25
2022-11-14T08:28:38.285Z,63.30
2022-11-14T08:33:39.741Z,51.60
2022-11-14T08:38:41.197Z,54.17
2022-11-14T08:43:42.640Z,47.20
2022-11-14T08:48:44.214Z,55.28
2022-11-14T08:53:45.623Z,58.15
2022-11-14T08:58:47.101Z,58.42
2022-11-14T09:03:48.682Z,53.70
2022-11-14T09:08:50.142Z,66.13
2022-11-14T09:13:51.574Z,63.63
2022-11-14T09:18:53.026Z,60.35
2022-11-14T09:24:00.374Z,62.00
2022-11-14T09:29:03.112Z,56.13
2022-11-14T09:34:04.517Z,62.10
2022-11-14T09:39:05.927Z,50.55
2022-11-14T09:44:32.818Z,55.78
2022-11-14T09:49:45.367Z,53.45
2022-11-14T09:54:53.578Z,54.88
2022-11-14T09:59:56.147Z,57.38
2022-11-14T10:05:30.119Z,54.15
2022-11-14T10:10:49.493Z,62.30
2022-11-14T10:21:02.223Z,50.47
2022-11-14T10:26:20.257Z,52.63
2022-11-14T10:31:58.811Z,55.53
2022-11-14T10:37:22.755Z,49.93
2022-11-14T10:42:37.806Z,50.55
2022-11-14T10:47:43.441Z,45.72
2022-11-14T10:52:46.233Z,47.28
2022-11-14T10:57:48.305Z,49.95
2022-11-14T11:02:55.295Z,45.33
2022-11-14T11:08:42.219Z,42.85
2022-11-14T11:13:53.381Z,43.70
2022-11-14T11:19:13.803Z,43.15
2022-11-14T11:24:32.067Z,46.28
2022-11-14T11:29:33.541Z,44.97
2022-11-14T11:34:35.087Z,46.08
2022-11-14T11:39:43.401Z,49.25
2022-11-14T11:44:50.963Z,59.42
2022-11-14T11:49:54.708Z,50.80
2022-11-14T11:55:17.247Z,43.70
2022-11-14T12:00:21.994Z,48.13
2022-11-14T12:05:57.322Z,43.00
2022-11-14T12:10:59.902Z,36.92
2022-11-14T12:16:13.561Z,50.88
2022-11-14T12:21:35.308Z,41.60
2022-11-14T12:27:00.546Z,45.25
2022-11-14T12:32:08.720Z,39.03
2022-11-14T12:37:18.176Z,42.95
2022-11-14T12:42:22.640Z,41.15
2022-11-14T12:47:28.730Z,39.47
2022-11-14T12:52:54.739Z,37.28
2022-11-14T12:58:28.729Z,39.90
2022-11-14T13:03:48.888Z,43.28
2022-11-14T13:09:28.584Z,40.33
2022-11-14T13:14:50.038Z,43.20
2022-11-14T13:20:09.989Z,42.00
2022-11-14T13:25:11.381Z,43.55
2022-11-14T13:30:12.860Z,45.33
2022-11-14T13:35:48.714Z,36.10
2022-11-14T13:41:24.317Z,42.53
2022-11-14T13:46:49.727Z,40.67
2022-11-14T13:51:53.628Z,36.75
2022-11-14T13:57:04.947Z,39.33
2022-11-14T14:02:42.654Z,44.55
2022-11-14T14:08:03.822Z,40.40
2022-11-14T14:13:16.491Z,43.33
2022-11-14T14:18:17.896Z,48.40
2022-11-14T14:23:34.819Z,43.22
2022-11-14T14:28:39.054Z,43.65
2022-11-14T14:33:43.182Z,40.13
2022-11-14T14:38:45.336Z,42.22
2022-11-14T14:43:53.657Z,45.45
2022-11-14T14:48:55.750Z,43.50
2022-11-14T14:53:58.685Z,62.83
2022-11-14T14:59:16.255Z,54.58
2022-11-14T15:04:20.587Z,80.03
2022-11-14T15:09:25.370Z,82.10
2022-11-14T15:14:30.664Z,58.40
2022-11-14T15:19:44.242Z,57.78
2022-11-14T15:25:06.845Z,52.35
2022-11-14T15:30:24.468Z,50.40
2022-11-14T15:35:29.491Z,57.38
2022-11-14T15:40:36.797Z,58.35
2022-11-14T15:45:40.944Z,58.47
2022-11-14T15:50:42.899Z,75.70
2022-11-14T15:55:44.489Z,94.25
2022-11-14T16:00:52.500Z,86.93
2022-11-14T16:05:53.926Z,79.05
2022-11-14T16:10:55.332Z,74.60
2022-11-14T16:15:56.740Z,70.85
2022-11-14T16:20:59.389Z,58.45
2022-11-14T16:26:00.842Z,58.50
2022-11-14T16:31:02.513Z,57.47
2022-11-14T16:36:04.354Z,60.58
2022-11-14T16:41:09.695Z,60.28
2022-11-14T16:46:11.502Z,70.53
2022-11-14T16:51:40.888Z,61.17
2022-11-14T16:56:34.771Z,69.07
2022-11-14T17:01:36.768Z,71.75
2022-11-14T17:06:38.347Z,64.10
2022-11-14T17:11:39.762Z,62.75
2022-11-14T17:16:41.397Z,63.67
2022-11-14T17:21:43.799Z,87.35
2022-11-14T17:26:45.247Z,65.50
2022-11-14T17:31:47.307Z,62.08
2022-11-14T17:36:48.832Z,62.25
2022-11-14T17:41:50.302Z,62.45
2022-11-14T17:46:53.792Z,62.88
2022-11-14T17:51:55.296Z,60.22
2022-11-14T17:56:58.500Z,59.47
2022-11-14T18:02:00.347Z,53.80
2022-11-14T18:07:01.924Z,53.90
2022-11-14T18:12:03.555Z,49.15
2022-11-14T18:17:12.740Z,52.60
2022-11-14T18:22:14.705Z,55.40
2022-11-14T18:27:16.192Z,51.38
2022-11-14T18:32:18.094Z,53.67
2022-11-14T18:37:19.508Z,55.83
2022-11-14T18:42:20.910Z,50.63
2022-11-14T18:47:22.363Z,54.42
2022-11-14T18:52:23.753Z,54.17
2022-11-14T18:57:25.214Z,55.92
2022-11-14T19:02:26.676Z,63.78
2022-11-14T19:07:29.485Z,59.45
2022-11-14T19:12:31.031Z,57.38
2022-11-14T19:17:32.495Z,66.40
2022-11-14T19:22:33.917Z,64.10
2022-11-14T19:27:35.336Z,62.22
2022-11-14T19:32:36.814Z,61.28
2022-11-14T19:37:38.223Z,60.72
2022-11-14T19:42:39.758Z,63.72
2022-11-14T19:47:41.220Z,61.47
2022-11-14T19:52:43.162Z,57.35
2022-11-14T19:57:44.791Z,61.28
2022-11-14T20:02:46.926Z,66.05
2022-11-14T20:07:48.385Z,64.03
2022-11-14T20:12:49.858Z,64.50
2022-11-14T20:17:51.290Z,69.85
2022-11-14T20:22:52.719Z,67.93
2022-11-14T20:27:54.182Z,65.72
2022-11-14T20:32:55.677Z,67.32
2022-11-14T20:38:00.548Z,64.10
2022-11-14T20:43:07.211Z,61.83
2022-11-14T20:48:08.609Z,62.83
2022-11-14T20:53:10.008Z,68.25
2022-11-14T20:58:11.438Z,62.05
2022-11-14T21:03:12.830Z,62.25
2022-11-14T21:08:14.515Z,58.13
2022-11-14T21:13:40.230Z,62.13
2022-11-14T21:18:47.557Z,61.15
2022-11-14T21:23:50.560Z,59.05
2022-11-14T21:28:57.608Z,69.72
2022-11-14T21:34:06.608Z,60.15
2022-11-14T21:39:08.082Z,63.22
2022-11-14T21:44:12.939Z,65.75
2022-11-14T21:49:14.574Z,68.13
2022-11-14T21:54:16.143Z,67.35
2022-11-14T21:59:21.332Z,66.15
2022-11-14T22:04:23.370Z,72.63
2022-11-14T22:09:28.013Z,68.50
2022-11-14T22:14:29.636Z,75.93
2022-11-14T22:19:31.142Z,67.93
2022-11-14T22:24:32.922Z,74.85
2022-11-14T22:29:34.354Z,70.45
2022-11-14T22:34:35.799Z,76.95
2022-11-14T22:39:37.196Z,76.05
2022-11-14T22:44:38.666Z,76.50
2022-11-14T22:49:40.076Z,75.35
2022-11-14T22:54:42.214Z,79.95
2022-11-14T22:59:43.610Z,76.22
2022-11-14T23:04:45.038Z,85.93
2022-11-14T23:09:46.514Z,73.60
2022-11-14T23:14:47.943Z,79.57
2022-11-14T23:19:49.361Z,79.53
2022-11-14T23:24:50.872Z,75.78
2022-11-14T23:29:52.284Z,79.38
2022-11-14T23:34:53.692Z,84.75
2022-11-14T23:39:55.109Z,87.95
2022-11-14T23:44:56.520Z,77.15
2022-11-14T23:49:58.329Z,74.03
2022-11-14T23:54:59.865Z,81.97
